ENSL

Sleipner A Platform Heliport

Norway
METAR ENSL 211950Z AUTO 18033KT 9999NDV BKN026/// 06/00 Q1005 W05/S4
Observed Flight Rules
Jan-21 @ 19:50 UTC (37 minutes ago)
Wind Clouds
180° at 33 knots
  • Broken at 2,600' AGL
Temperatures Readings
Current 6°C / 43°F
Dewpoint 0°C / 32°F
Humidity 66%
Altimeter 29.68" Hg
Pressure 1004.92 hPa
Elevation 50
METAR ENSL 211950Z AUTO 18033KT 9999NDV BKN026/// 06/00 Q1005 W05/S4
Observed Flight Rules
Jan-21 @ 19:50 UTC
(37 minutes ago)
Wind
180° at 33 knots
Clouds
  • Broken at 2,600' AGL
Temperature Dewpoint
6°C / 43°F 0°C / 32°F
Humidity Altimeter Pressure
66% 29.68" Hg 1004.92 hPa